Squamish Triathlon 8th Annual
             Results by RACE HEADQUARTERS -  Lorraine Davidson 
                                                          Sunday July 10, 2005


      FINAL OVERALL Results

 FINAL Place     Place/TOTAL    FINAL  BIB  NAME of               SWIM 1.5Km BIKE 40 Km  Mi. End of BIKE  RUN  10 Km  PACE
 PLACE in SEX    in DIVISION    TIME   NO. COMPETITOR             Rank Split Rank Split /Hr. Place  TIME  Rank Split /Mile CITY

    1   1/181 M  1/37 M3034  1:56:02  162 Paul Krochak              3 19:08    1 1:00:28 24.7    2 1:19:36    1 36:26  5:52 Vancouver,BC
    2   2/181 M  1/15 M2529  1:56:06  364 Chris Boudreaux           2 19:07    2 1:00:28 24.7    1 1:19:35    2 36:31  5:53 Victoria,BC
    3   3/181 M  1/32 M4044  2:00:32   40 Jaime Cathcart           14 21:21    3 1:01:10 24.4    3 1:22:31    4 38:01  6:07 Richmond,BC
    4   4/181 M  2/37 M3034  2:01:04  208 Darren Mealing            7 20:35    4 1:02:13 24.0    4 1:22:47    5 38:18  6:10 Delta,BC
    5   5/181 M  1/11 M2024  2:02:49  257 Andrew Russell            1 19:06    5 1:04:25 23.2    5 1:23:30    8 39:19  6:20 Revelstoke,BC
    6   6/181 M  2/32 M4044  2:05:29   23 Charles Bingham          12 21:09    6 1:05:13 22.9    6 1:26:21    7 39:08  6:18 North Vancouver,
    7   7/181 M  1/37 M3539  2:06:03   52 Sean Clark               20 22:05    8 1:05:17 22.8    9 1:27:21    6 38:43  6:14 North Vancouver,
    8   1/151 F  1/32 F2529  2:09:07  184 Jen MacLean               8 20:37   13 1:06:08 22.6    7 1:26:45   22 42:22  6:50 Vancouver,BC
    9   2/151 F  1/15 F2024  2:09:33   14 Sarah Baker              17 21:46    7 1:05:16 22.9    8 1:27:01   24 42:32  6:51 White Rock,BC
   10   8/181 M  3/37 M3034  2:10:02  267 Graham Schulz            29 23:41   30 1:08:24 21.8   23 1:32:04    3 37:58  6:07 Squamish,BC
   11   9/181 M  2/11 M2024  2:11:43  175 Marc-Jason Locquiao      54 24:53   19 1:06:46 22.3   18 1:31:39    9 40:05  6:27 Delta,BC
   12  10/181 M  2/37 M3539  2:11:57  131 David Higgins             5 20:21   71 1:11:23 20.9   19 1:31:43   11 40:14  6:29 Whistler,BC
   13  11/181 M  2/15 M2529  2:12:00  345 Kyle Wheatley            15 21:23   32 1:08:33 21.8   11 1:29:56   20 42:05  6:47 North Vancouver,
   14  12/181 M  4/37 M3034  2:12:53  222 Rob Obrien               65 25:15   24 1:07:27 22.1   27 1:32:42   10 40:12  6:29 North Vancouver,
   15  13/181 M  3/32 M4044  2:13:39  263 Jean-Yves Sauriol         4 20:07   50 1:10:29 21.2   13 1:30:35   27 43:04  6:56 Vancouver,BC
   16  14/181 M  3/37 M3539  2:13:59  159 Jamie Kimber             70 25:20   25 1:07:28 22.1   29 1:32:48   14 41:12  6:38 Vancouver,BC
   17  15/181 M  5/37 M3034  2:14:08  247 Ron Rillorta             63 25:13   20 1:06:47 22.3   21 1:31:59   21 42:09  6:47 Coquitlam,BC
   18  16/181 M  3/15 M2529  2:14:20  200 Matt McDowell            39 24:16    9 1:05:21 22.8   10 1:29:36   41 44:44  7:12 Powell River,BC
   19   3/151 F  1/32 F3034  2:14:56  236 Marie-Anne Prevost       50 24:45   14 1:06:17 22.5   14 1:31:02   32 43:54  7:04 Whistler,BC
   20  17/181 M  1/29 M4549  2:15:39  280 Mark Shorter             67 25:17   29 1:08:22 21.8   37 1:33:38   18 42:01  6:46 North Vancouver,
   21  18/181 M  6/37 M3034  2:16:06  221 Derrick Nelson           43 24:23   33 1:08:34 21.8   30 1:32:57   28 43:10  6:57 North Vancouver,
   22  19/181 M  2/29 M4549  2:16:07   74 Bob Deeks                91 25:59   18 1:06:42 22.4   25 1:32:41   29 43:26  7:00 Whistler,BC
   23  20/181 M  7/37 M3034  2:16:26  240 Jaime Ramirez           158 28:49   22 1:07:04 22.2   51 1:35:52   12 40:34  6:32 Surrey,BC
   24  21/181 M  3/11 M2024  2:16:27  107 Doug Giles              101 26:43   27 1:07:51 22.0   43 1:34:33   15 41:55  6:45 North Vancouver,
   25  22/181 M  4/32 M4044  2:16:33  241 Rich Rawling             66 25:17   26 1:07:47 22.0   31 1:33:03   30 43:30  7:00 Squamish,BC
   26  23/181 M  4/37 M3539  2:16:43   36 Shaun Callaghan          16 21:33   34 1:08:48 21.7   12 1:30:21   67 46:23  7:28 Port Moody,BC
   27   4/151 F  2/15 F2024  2:17:12  270 Jessica Scott            18 21:49   40 1:09:14 21.5   15 1:31:02   61 46:10  7:26 Vancouver,BC
   28  24/181 M  8/37 M3034  2:17:33  199 Greg McDonnell           97 26:20   23 1:07:08 22.2   36 1:33:27   34 44:06  7:06 Whistler,BC
   29  25/181 M  5/37 M3539  2:17:37  248 Alan Roberts             62 25:04   28 1:08:20 21.8   35 1:33:24   36 44:14  7:08 Maple Ridge,BC
   30  26/181 M  9/37 M3034  2:17:39  181 Nick Lyne                47 24:35   39 1:09:11 21.6   39 1:33:45   31 43:54  7:04 North Vancouver,
   31  27/181 M  6/37 M3539  2:17:42  252 Darrell Rodriguez         6 20:29   88 1:12:52 20.5   34 1:33:21   37 44:22  7:09 Vancouver,BC
   32   5/151 F  1/30 F3539  2:17:42  123 Elizabeth Hatch          60 24:59   16 1:06:23 22.5   17 1:31:21   65 46:22  7:28 Maple Ridge,BC
   33   6/151 F  2/32 F2529  2:17:53  137 Teresa Hoivik            33 23:59   62 1:10:58 21.0   48 1:34:57   26 42:56  6:55 Garibaldi Hglds,
   34  28/181 M  4/11 M2024  2:18:27   10 Jordan Back              99 26:40   56 1:10:47 21.1   60 1:37:27   13 41:01  6:37 North Vancouver,
   35  29/181 M  3/29 M4549  2:18:36  325 Rick Tkach               24 23:15   35 1:08:48 21.7   22 1:32:03   69 46:33  7:30 Burnaby,BC
   36   7/151 F  3/32 F2529  2:18:36  187 Sarah Manske             41 24:22   21 1:06:59 22.3   16 1:31:20   77 47:17  7:37 Vancouver,BC
   37  30/181 M  5/11 M2024  2:18:57  242 Brock Rawstron          128 27:40   15 1:06:23 22.5   41 1:34:02   43 44:56  7:14 Coquitlam,BC
   38   8/151 F  2/30 F3539  2:19:07  157 Stephanie Kieffer        10 20:42   75 1:12:03 20.7   28 1:32:44   66 46:23  7:28 Vancouver,BC
   39  31/181 M 10/37 M3034  2:19:12  117 Daryl Handley           119 27:13   10 1:05:57 22.6   32 1:33:10   60 46:02  7:25 Vancouver,BC
   40  32/181 M  7/37 M3539  2:19:14  168 Cameron Lebans          218 30:46   17 1:06:27 22.4   58 1:37:12   19 42:02  6:46 Vancouver,BC
   41  33/181 M  6/11 M2024  2:19:49    9 Jonn Axsen              136 27:52   42 1:09:34 21.4   59 1:37:26   23 42:23  6:50 Vancouver,BC
   42  34/181 M  1/4  M6064  2:19:52  262 Greg Sandkuhl            26 23:29   68 1:11:13 20.9   45 1:34:42   49 45:10  7:17 Whistler,BC
   43  35/181 M  8/37 M3539  2:19:56   41 Dave Chamberlain         88 25:52   11 1:06:04 22.6   20 1:31:56   86 48:01  7:44 Maple Ridge,BC
   44  36/181 M  4/29 M4549  2:19:56   62 Neil Corbett             57 24:54   45 1:10:00 21.3   47 1:34:54   46 45:02  7:15 Delta,BC
   45  37/181 M  9/37 M3539  2:20:03  113 Shane Gunther             9 20:40   74 1:12:02 20.7   26 1:32:41   78 47:22  7:38 Burnaby,BC
   46  38/181 M  5/29 M4549  2:20:09  233 Ken Phillips            133 27:46   12 1:06:06 22.6   40 1:33:51   63 46:18  7:28 West Vancouver,B
   47  39/181 M 11/37 M3034  2:20:25  276 David Setton             87 25:51   46 1:10:11 21.3   53 1:36:02   38 44:23  7:09 Vancouver,BC
   48  40/181 M 10/37 M3539  2:20:41  193 Clint Maxwell            22 23:04   93 1:13:06 20.4   54 1:36:10   39 44:32  7:10 Vancouver,BC
   49   9/151 F  4/32 F2529  2:21:15  228 Charlene Parrott         11 20:56   86 1:12:44 20.5   38 1:33:39   80 47:37  7:40 Coquitlam,BC
   50  10/151 F  5/32 F2529  2:22:20  202 Kathy McKay              76 25:31   63 1:11:00 21.0   55 1:36:31   57 45:49  7:23 Vancouver,BR
   51  41/181 M  7/11 M2024  2:22:44  160 John Koehn               84 25:45   69 1:11:14 20.9   56 1:36:58   54 45:46  7:22 Coquitlam,BC
   52  11/151 F  2/32 F3034  2:23:03  134 Sara Hills              104 26:58   54 1:10:43 21.1   63 1:37:40   51 45:23  7:19 Vancouver,BC
   53  42/181 M  5/32 M4044  2:23:13  271 Ken Scott               148 28:14   92 1:13:03 20.4  100 1:41:17   16 41:56  6:45 Coquitlam,BC
   54  12/151 F  6/32 F2529  2:23:17    5 Lina Augaitis            48 24:36  102 1:13:40 20.2   74 1:38:16   45 45:01  7:15 Vancouver,BC
   55  43/181 M 11/37 M3539  2:23:20   29 Dan Bodden              153 28:37   36 1:08:56 21.6   61 1:37:32   56 45:49  7:23 Victoria,BC
   56  44/181 M  6/32 M4044  2:23:26  296 Jeff Stasiuk             36 24:11   37 1:09:01 21.6   33 1:33:11  121 50:15  8:06 Surrey,BC
   57  45/181 M  6/29 M4549  2:23:32  124 Daniel Havens            58 24:55  143 1:16:40 19.5  108 1:41:35   17 41:58  6:46 Whistler,BC
   58  46/181 M 12/37 M3539  2:23:38  189 Paul Martinson           23 23:14   84 1:12:40 20.5   52 1:35:53   82 47:45  7:41 Vancouver,BC
   59  13/151 F  7/32 F2529  2:23:53  245 Jennifer Rice            31 23:48   53 1:10:36 21.1   42 1:34:23  108 49:30  7:58 Surrey,BC
   60  47/181 M  7/29 M4549  2:23:53  254 Peter Ross               95 26:15   31 1:08:29 21.8   46 1:34:43  102 49:10  7:55 Vancouver,BC
   61  48/181 M  4/15 M2529  2:24:00   47 Horace Chow             168 28:56   60 1:10:56 21.0   83 1:39:52   35 44:09  7:07 Burnaby,BC
   62  49/181 M  8/29 M4549  2:24:26   58 Mark Cook               112 27:08   55 1:10:46 21.1   70 1:37:54   68 46:33  7:30 Vancouver,BC
   63  50/181 M  7/32 M4044  2:24:40  330 Mike Truelove           100 26:41   70 1:11:17 20.9   71 1:37:57   71 46:44  7:32 Squamish,BC
   64  14/151 F  8/32 F2529  2:24:41  360 Lyndsay Wrightson        51 24:46   51 1:10:32 21.1   50 1:35:18  106 49:23  7:57 West Vancouver,B
   65  51/181 M 13/37 M3539  2:24:53  138 Bobby Holden            142 28:09   44 1:09:50 21.4   72 1:37:58   72 46:56  7:34 Vancouver,BC
   66  15/151 F  3/32 F3034  2:24:55  109 Jenika Gordon            35 24:07   65 1:11:07 21.0   49 1:35:14  112 49:41  8:00 Vancouver,BC
   67  52/181 M  8/32 M4044  2:25:25  369 Nicholas Von Schoenber  154 28:42   38 1:09:08 21.6   69 1:37:49   79 47:36  7:40 New Westminster,
   68  53/181 M  1/4  M5559  2:25:40  349 Ray Wilburn             130 27:42   77 1:12:12 20.7   84 1:39:53   55 45:47  7:23 Squamish,BC
   69  16/151 F  1/18 F4044  2:25:42  147 Christina Hughes         72 25:27   78 1:12:18 20.6   66 1:37:44   85 47:58  7:44 Coquitlam,BC
   70  54/181 M  5/15 M2529  2:25:50    8 Richard Avedon-Savage   152 28:36  113 1:14:38 20.0  127 1:43:13   25 42:37  6:52 Nanaimo,BC
   71  55/181 M  9/32 M4044  2:26:16  335 Jose Villavicencio      115 27:10  105 1:13:55 20.2   97 1:41:04   50 45:12  7:17 North Vancouver,
   72  56/181 M 12/37 M3034  2:26:16  338 Joel Waithman           179 29:16   64 1:11:04 21.0   90 1:40:20   59 45:57  7:24 Vancouver,BC
   73  57/181 M 14/37 M3539  2:26:29  188 Dave Markham             13 21:19   57 1:10:50 21.1   24 1:32:08  190 54:21  8:45 Vancouver,BC
   74  17/151 F  3/15 F2024  2:26:34  149 Rachel Ilg               77 25:32  107 1:14:01 20.2   81 1:39:33   74 47:02  7:35 Vancouver,BC
   75  58/181 M 13/37 M3034  2:26:36  321 John Teitzel             32 23:57  153 1:17:30 19.2  105 1:41:26   48 45:10  7:17 Pemberton,BC
   76  59/181 M 14/37 M3034  2:27:22  101 Francois Fournier       166 28:54   76 1:12:09 20.7   96 1:41:03   64 46:20  7:28 Squamish,BC
   77  60/181 M 15/37 M3539  2:27:28  130 Peter Henderson         196 29:57   47 1:10:21 21.2   89 1:40:17   76 47:11  7:36 Vancouver,BC
   78  61/181 M 10/32 M4044  2:27:33  178 Dean Luff               189 29:36   82 1:12:34 20.6  114 1:42:10   52 45:24  7:19 North Vancouver,
   79  62/181 M 15/37 M3034  2:27:52  106 Sean George             122 27:21   48 1:10:24 21.2   65 1:37:44  119 50:09  8:05 Vancouver,BC
   80  63/181 M 11/32 M4044  2:28:01   80 Patrick Dickie          125 27:26   58 1:10:51 21.1   75 1:38:16  114 49:45  8:01 Halfmoon Bay,BC
   81  64/181 M  1/9  M5054  2:28:05   26 John Blok               135 27:49   72 1:11:39 20.8   80 1:39:27   95 48:38  7:50 Whistler,BC
   82  65/181 M  1/3  M1519  2:28:38  256 Max Roy                  68 25:19   79 1:12:29 20.6   67 1:37:48  129 50:50  8:11 Garibaldi Hglds,
   83  66/181 M 12/32 M4044  2:28:51   56 Steve Cologne           150 28:18  104 1:13:53 20.2  115 1:42:11   70 46:40  7:31 Vancouver,BC
   84  67/181 M 16/37 M3539  2:28:54   93 Brice Evans              90 25:56   73 1:11:45 20.8   64 1:37:40  133 51:14  8:15 Vancouver,BC
   85  68/181 M  6/15 M2529  2:28:56   34 Pete Brennan             69 25:19  171 1:18:46 18.9  134 1:44:05   42 44:51  7:14 Squamish,BC
   86  69/181 M  8/11 M2024  2:29:08  151 Robert Jackman           27 23:31   98 1:13:30 20.3   57 1:37:00  147 52:08  8:24 Surrey,BC
   87  18/151 F  4/32 F3034  2:29:08    6 Nancy Austin             49 24:42   94 1:13:08 20.4   68 1:37:49  135 51:20  8:16 Vancouver,BC
   88  70/181 M 13/32 M4044  2:29:25    3 Dug Andrusiek            98 26:29   95 1:13:12 20.4   82 1:39:41  113 49:45  8:01 North Vancouver,
   89  19/151 F  3/30 F3539  2:29:38  326 Marnie Tocheniuk         93 26:07  118 1:15:15 19.8  103 1:41:21   88 48:18  7:47 Garibaldi Hglds,
   90  71/181 M  9/29 M4549  2:29:45  302 Dan Stewart             183 29:27   49 1:10:29 21.2   85 1:39:55  115 49:50  8:02 North Vancouver,
   91  72/181 M 14/32 M4044  2:29:45  320 Ian Tate                107 27:01  101 1:13:38 20.3   91 1:40:39  100 49:06  7:55 Langley,BC
   92  73/181 M 17/37 M3539  2:29:49  310 John Sullivan            30 23:42   59 1:10:54 21.0   44 1:34:36  207 55:14  8:54 Vancouver,BC
   93  74/181 M  9/11 M2024  2:30:01  143 Michael Houston         140 28:02   41 1:09:32 21.5   62 1:37:33  153 52:28  8:27 Victoria,BC
   94  20/151 F  4/15 F2024  2:30:11  212 Alisha Mills             21 22:26  157 1:17:49 19.2   87 1:40:14  116 49:57  8:03 Coquitlam,BC
   95  21/151 F  1/1  F1519  2:30:27   70 Claire Daniels          127 27:29   99 1:13:30 20.3   95 1:40:59  107 49:29  7:58 Whistler,BC
   96  75/181 M 10/29 M4549  2:30:55   42 Lee Chanin              103 26:53  112 1:14:25 20.0  101 1:41:18  110 49:37  8:00 Langley,BC
   97  76/181 M 16/37 M3034  2:31:18  119 Martin Harley            83 25:44   81 1:12:32 20.6   73 1:38:15  163 53:03  8:33 Vancouver,BC
   98  77/181 M 17/37 M3034  2:31:22  145 Greg Hubbard            201 30:01   66 1:11:09 21.0   98 1:41:10  120 50:12  8:05 Vancouver,BC
   99  78/181 M 11/29 M4549  2:31:25  260 Mark Rutledge            53 24:48  131 1:15:57 19.6   92 1:40:45  126 50:40  8:10 Vancouver,BC
  100  79/181 M 15/32 M4044  2:31:25  322 Scott Thompson          180 29:23   91 1:13:00 20.4  116 1:42:22   99 49:03  7:54 Surrey,BC
  101  80/181 M 18/37 M3539  2:31:28  161 David Kozicz            184 29:27   83 1:12:39 20.5  113 1:42:05  105 49:23  7:57 Vancouver,BC
  102  81/181 M 19/37 M3539  2:31:29  176 Brent Lokash            163 28:52  108 1:14:12 20.1  126 1:43:04   91 48:26  7:48 Vancouver,BC
  103  82/181 M 12/29 M4549  2:32:02  207 Tracie McTavish         199 29:57  111 1:14:21 20.1  137 1:44:18   81 47:44  7:41 West Vancouver,B
  104  83/181 M 18/37 M3034  2:32:02   45 Chung Cheung            259 32:57   43 1:09:43 21.4  119 1:42:40  104 49:23  7:57 Vancouver,BC
  105  84/181 M  7/15 M2529  2:32:19  232 Jotham Peters            56 24:54  121 1:15:22 19.8   88 1:40:15  143 52:04  8:23 Vancouver,BC
  106  85/181 M 16/32 M4044  2:32:30  324 Chi-Teck Ting           120 27:17   67 1:11:12 21.0   76 1:38:28  184 54:03  8:42 Squamish,BC
  107  22/151 F  4/30 F3539  2:32:51   24 Karen Birkenhead        159 28:50  166 1:18:23 19.0  161 1:47:13   53 45:38  7:21 West Vancouver,B
  108  86/181 M  2/9  M5054  2:32:53   60 Steve Cooper            129 27:42  152 1:17:26 19.3  141 1:45:08   83 47:46  7:42 Vancouver,BC
  109  87/181 M 20/37 M3539  2:32:55  136 Chris Hodkinson          81 25:41  103 1:13:43 20.2   78 1:39:23  176 53:32  8:37 Whistler,BC
  110  88/181 M 10/11 M2024  2:33:00  287 Ariel Smsr              143 28:10  175 1:18:57 18.9  160 1:47:06   58 45:54  7:24 Garibaldi Hglds,
  111  23/151 F  5/30 F3539  2:33:11  126 Michelle Heilgenpahl-C  105 26:58  110 1:14:19 20.1   99 1:41:17  141 51:54  8:22 Pitt Meadows,BC
  112  89/181 M 21/37 M3539  2:33:18  284 Jason Simpson           204 30:10  100 1:13:35 20.3  131 1:43:45  109 49:33  7:59 Whistler,BC
  113  24/151 F  5/15 F2024  2:33:29   15 Julie Balderston        118 27:13  140 1:16:19 19.5  130 1:43:31  118 49:59  8:03 North Vancouver,
  114  25/151 F  2/18 F4044  2:33:31  298 Cheryl Steele           111 27:07  120 1:15:19 19.8  117 1:42:26  130 51:05  8:14 Vancouver,BC
  115  26/151 F  9/32 F2529  2:33:39  353 Karen Willis             75 25:30  188 1:20:18 18.6  150 1:45:47   84 47:52  7:43 Squamish,BC
  116  90/181 M 13/29 M4549  2:33:50  336 Michael Vipond          146 28:12  197 1:20:39 18.5  176 1:48:50   44 45:01  7:15 Surrey,BC
  117  27/151 F 10/32 F2529  2:34:02  368 Sue Spruston             92 26:02  145 1:16:48 19.4  121 1:42:50  132 51:13  8:15 Vancouver,BC
  118  28/151 F  1/12 F4549  2:34:06  153 May Jung                174 29:06  159 1:17:52 19.2  157 1:46:57   75 47:09  7:36 North Vancouver,
  119  91/181 M  8/15 M2529  2:34:12  301 Travis Stevenson        200 29:59   61 1:10:57 21.0   93 1:40:56  168 53:17  8:35 Vancouver,BC
  120  29/151 F  6/30 F3539  2:34:20   91 Audrey Erlandson        109 27:02   89 1:12:54 20.5   86 1:39:56  191 54:25  8:46 Comox,BC
  121  30/151 F 11/32 F2529  2:34:30  227 Kate Paquin              38 24:13  167 1:18:35 19.0  120 1:42:47  139 51:43  8:20 Vancouver,BC
  122  92/181 M  3/9  M5054  2:34:33  185 Ron Manley              134 27:48  126 1:15:36 19.7  129 1:43:23  131 51:11  8:15 Vancouver,BR
  123  31/151 F  2/12 F4549  2:34:46  156 Jaye Kerzner             78 25:35  127 1:15:44 19.7  102 1:41:19  174 53:27  8:37 Vancouver,BC
  124  93/181 M  4/9  M5054  2:34:48  111 Jannie Grobler          186 29:29  132 1:16:01 19.6  147 1:45:29  103 49:19  7:57 Whistler,BC
  125  32/151 F  3/18 F4044  2:34:58   28 Jodi Boates              71 25:27  135 1:16:06 19.6  106 1:41:32  172 53:27  8:36 North Vancouver,
  126  94/181 M 19/37 M3034  2:35:08  265 Kai-Uwe Schmidt          28 23:37  177 1:19:15 18.8  122 1:42:52  150 52:17  8:25 Vancouver,BC
  127  95/181 M 22/37 M3539  2:35:25  334 Carlos Villavicencio    160 28:50  214 1:21:52 18.2  191 1:50:42   40 44:43  7:12 North Vancouver,
  128  33/151 F  5/32 F3034  2:35:29  340 Megan Wastle             37 24:11  172 1:18:48 18.9  124 1:42:58  155 52:31  8:28 Whistler,BC
  129  96/181 M 17/32 M4044  2:35:32  239 Warren Quinn            212 30:29  137 1:16:12 19.6  155 1:46:41   97 48:51  7:52 White Rock,BC
  130  97/181 M 23/37 M3539  2:35:37  115 Darin Hale              226 31:15   52 1:10:33 21.1  112 1:41:47  181 53:50  8:40 Delta,BC
  131  34/151 F  7/30 F3539  2:35:58   92 Bobbi-Jo Evans          137 27:54  122 1:15:25 19.8  128 1:43:18  156 52:40  8:29 Vancouver,BC
  132  35/151 F  8/30 F3539  2:36:19  249 Amanda Roberts          169 28:57  117 1:15:10 19.8  135 1:44:07  149 52:12  8:25 Maple Ridge,BC
  133  98/181 M 20/37 M3034  2:36:20   53 Chris Clibbon            85 25:47  150 1:17:17 19.3  125 1:43:03  170 53:17  8:35 Vancouver,BC
  134  99/181 M 18/32 M4044  2:36:23  166 Paul Larocque           102 26:43  154 1:17:31 19.2  136 1:44:13  148 52:11  8:24 Vancouver,BC
  135 100/181 M 24/37 M3539  2:36:30  146 David Hubner            248 32:28  124 1:15:31 19.8  171 1:47:58   94 48:32  7:49 Garibaldi Hglds,
  136 101/181 M 19/32 M4044  2:36:48  102 James Frail             185 29:27  116 1:14:54 19.9  138 1:44:20  152 52:28  8:27 Calgary,AB
  137 102/181 M 21/37 M3034  2:36:48  333 James Vallance          176 29:10   80 1:12:30 20.6  111 1:41:39  205 55:10  8:53 Chilliwack,BC
  138 103/181 M 22/37 M3034  2:36:55  190 Dana Maslovat           192 29:46  204 1:20:59 18.4  192 1:50:44   62 46:11  7:26 Delta,BC
  139 104/181 M  2/4  M5559  2:37:01  303 Greg Stine              178 29:13  151 1:17:23 19.3  153 1:46:35  124 50:26  8:07 Sopron,HU
  140  36/151 F  9/30 F3539  2:37:05  144 Cindy Hubbard           165 28:54   85 1:12:41 20.5  107 1:41:35  213 55:31  8:56 Vancouver,BC
  141  37/151 F 12/32 F2529  2:37:08   97 Tiff Fenton              45 24:33  148 1:17:04 19.4  109 1:41:37  214 55:32  8:57 Squamish,BC
  142  38/151 F 13/32 F2529  2:37:18  135 Sarah Hiseman           198 29:57  169 1:18:38 19.0  175 1:48:34   96 48:45  7:51 Squamish,BC
  143 105/181 M 20/32 M4044  2:37:37  283 Mike Simm               214 30:32  139 1:16:18 19.5  156 1:46:49  128 50:48  8:11 Squamish,BC
  144  39/151 F  3/12 F4549  2:37:38   94 Sandra Eves             106 27:00  163 1:18:21 19.0  144 1:45:20  151 52:18  8:25 Garibaldi Hglds,
  145  40/151 F  6/32 F3034  2:37:56   38 Andrea Camp             117 27:11  128 1:15:46 19.7  123 1:42:57  199 55:00  8:51 Vancouver,BC
  146  41/151 F  4/12 F4549  2:38:02  215 Darcel Moro             191 29:42  123 1:15:28 19.8  142 1:45:09  159 52:53  8:31 Coquitlam,BC
  147  42/151 F  4/18 F4044  2:38:04  318 Wanda Tataryn           181 29:23  165 1:18:23 19.0  167 1:47:45  122 50:19  8:06 Powell River,BC
  148 106/181 M 21/32 M4044  2:38:12  141 Tom Honey               215 30:33  146 1:16:53 19.4  163 1:47:25  127 50:47  8:11 Garibaldi Hglds,
  149  43/151 F 14/32 F2529  2:38:26  216 Jackie Muir             147 28:14  212 1:21:51 18.2  188 1:50:04   90 48:23  7:48 Vancouver,BC
  150 107/181 M 14/29 M4549  2:38:31  354 Robin Wilson            308 37:25  133 1:16:04 19.6  220 1:53:29   47 45:03  7:15 Langley,BC
  151 108/181 M  2/4  M6064  2:38:51  201 Don McIntosh            187 29:30  130 1:15:53 19.7  146 1:45:23  175 53:29  8:37 Burnaby,BC
  152  44/151 F  5/12 F4549  2:38:54   37 Aenea Cameron           279 34:47  149 1:17:06 19.3  206 1:51:53   73 47:01  7:34 Squamish,BC
  153 109/181 M 23/37 M3034  2:39:02  294 Sean Staniforth         161 28:52   87 1:12:46 20.5  110 1:41:38  234 57:25  9:15 Vancouver,BC
  154  45/151 F 15/32 F2529  2:39:27  129 Kendra Henderson         89 25:56  237 1:23:54 17.8  186 1:49:49  111 49:38  8:00 Squamish,BC
  155  46/151 F  6/12 F4549  2:39:43  305 Leslie Stoffberg        145 28:11  158 1:17:50 19.2  151 1:46:01  178 53:43  8:39 Langley,BC
  156 110/181 M 15/29 M4549  2:39:48  251 Rob Roberts             242 32:03  179 1:19:18 18.8  200 1:51:21   92 48:28  7:48 Langley,BC
  157 111/181 M 16/29 M4549  2:40:14   78 Peter Denny             207 30:19  115 1:14:52 19.9  143 1:45:11  202 55:04  8:52 North Vancouver,
  158  47/151 F 16/32 F2529  2:40:17  224 Catherine O'Neill        86 25:51  258 1:25:35 17.4  203 1:51:25   98 48:53  7:52 Whistler,BC
  159 112/181 M 24/37 M3034  2:40:21    4 Trent Argent             52 24:47  196 1:20:36 18.5  145 1:45:22  198 55:00  8:51 Whistler,BC
  160  48/151 F  7/32 F3034  2:40:25  258 Lara Russell            193 29:46  180 1:19:25 18.8  180 1:49:11  134 51:15  8:15 Vancouver,BC
  161  49/151 F 10/30 F3539  2:40:29  100 Denise Flower           197 29:57  114 1:14:47 19.9  139 1:44:43  217 55:46  8:59 Delta,BC
  162 113/181 M  9/15 M2529  2:40:45  285 Christopher Skidmore    256 32:46  141 1:16:36 19.5  182 1:49:22  136 51:23  8:17 Coquitlam,BC
  163  50/151 F 17/32 F2529  2:40:54  230 Leah Perrier             44 24:31  231 1:23:21 17.9  169 1:47:51  164 53:03  8:33 Vancouver,BC
  164 114/181 M 10/15 M2529  2:41:11  154 Clinton Kabler          319 38:56  109 1:14:14 20.1  218 1:53:09   87 48:02  7:44 Vancouver,BC
  165 115/181 M 25/37 M3034  2:41:29  210 Dwight Milford          307 36:51  201 1:20:45 18.5  254 1:57:35   33 43:55  7:04 Maple Ridge,BC
  166  51/151 F 18/32 F2529  2:41:32  315 Lydia Szymanski         113 27:08  219 1:22:19 18.1  184 1:49:27  144 52:05  8:23 Squamish,BC
  167  52/151 F 19/32 F2529  2:41:44  332 Lenka Urbankova         124 27:24  182 1:19:41 18.7  159 1:47:05  194 54:40  8:48 North Vancouver,
  168 116/181 M 17/29 M4549  2:41:55  238 Doug Querns              79 25:37  164 1:18:22 19.0  133 1:43:58  239 57:57  9:20 North Vancouver,
  169  53/151 F  7/12 F4549  2:42:11   82 Terrie Dlugon           234 31:41  125 1:15:34 19.7  162 1:47:15  196 54:57  8:51 Vancouver,BC
  170 117/181 M 25/37 M3539  2:42:21  182 Scott MacIntyre         177 29:11  156 1:17:47 19.2  158 1:46:58  208 55:24  8:55 Squamish,BC
  171  54/151 F 11/30 F3539  2:42:22  103 Jackie Fulton            61 24:59  185 1:20:05 18.6  140 1:45:03  233 57:19  9:14 Whistler,BC
  172  55/151 F  8/32 F3034  2:42:28  112 Renee Gross             268 33:32  192 1:20:27 18.5  226 1:53:59   93 48:30  7:49 Vancouver,BC
  173 118/181 M 22/32 M4044  2:43:10  343 Andrew Westlund         188 29:32   90 1:12:58 20.4  118 1:42:30  250 60:40  9:46 Surrey,BC
  174 119/181 M  3/4  M5559  2:43:16   64 Richard Cudmore         208 30:20  129 1:15:49 19.7  152 1:46:08  232 57:09  9:12 Squamish,BC
  175 120/181 M 23/32 M4044  2:43:19  342 David Webb              121 27:19  246 1:24:31 17.6  205 1:51:50  138 51:30  8:18 Vancouver,BC
  176 121/181 M 11/15 M2529  2:43:20  219 Glen Murray             172 29:02  142 1:16:37 19.5  148 1:45:39  237 57:42  9:18 Squamish,BC
  177  56/151 F 20/32 F2529  2:43:28  344 Fay Wheatley            211 30:29  174 1:18:57 18.9  183 1:49:26  185 54:03  8:42 Vancouver,BC
  178  57/151 F 12/30 F3539  2:43:29  327 Rochelle Todosichuk     269 33:33  178 1:19:18 18.8  212 1:52:50  125 50:39  8:10 Vancouver,BC
  179 122/181 M 26/37 M3034  2:43:30   39 Jason Camp              237 31:44  138 1:16:14 19.6  170 1:47:58  215 55:32  8:57 Vancouver,BC
  180 123/181 M 26/37 M3539  2:43:41  108 Sam Goheen              175 29:09  162 1:18:16 19.1  164 1:47:25  224 56:17  9:04 Vancouver,BC
  181 124/181 M 27/37 M3034  2:43:49  177 Jason Lopez              80 25:38   96 1:13:12 20.4   77 1:38:49  281 65:00 10:28 Vancouver,BC
  182  58/151 F  1/8  F5054  2:43:52  234 Patty Phillips          245 32:23  168 1:18:36 19.0  193 1:50:59  160 52:54  8:31 North Vancouver,
  183 125/181 M 27/37 M3539  2:43:56  348 Selig Wilansky           94 26:12  218 1:22:18 18.1  174 1:48:30  211 55:27  8:56 Vancouver,BC
  184  59/151 F 13/30 F3539  2:44:00  309 Maria Suarez             82 25:41  252 1:24:53 17.6  190 1:50:33  173 53:27  8:37 North Vancouver,
  185  60/151 F  5/18 F4044  2:44:05  337 Yvonne Visser           132 27:45  272 1:27:12 17.1  230 1:54:57  101 49:08  7:55 Nanaimo,BC
  186 126/181 M 12/15 M2529  2:44:11   77 Daniel Dempsey          233 31:34  181 1:19:31 18.8  195 1:51:04  166 53:08  8:33 Squamish,BC
  187  61/151 F 21/32 F2529  2:44:15   67 Tam Cummings            265 33:19  173 1:18:55 18.9  208 1:52:14  142 52:02  8:23 Vancouver,BC
  188 127/181 M 28/37 M3034  2:44:21   98 David Ferguson          141 28:04  202 1:20:52 18.4  177 1:48:55  209 55:26  8:56 Vancouver,BC
  189  62/151 F  9/32 F3034  2:44:28  297 Amanda Staton           116 27:11  206 1:21:14 18.4  172 1:48:25  223 56:04  9:02 White Rock,BC
  190  63/151 F 14/30 F3539  2:44:31  204 Alison McManus           96 26:19  254 1:25:04 17.5  202 1:51:23  167 53:08  8:33 Delta,BC
  191  64/151 F 22/32 F2529  2:44:38  179 Janna Lunam             114 27:09  239 1:24:13 17.7  201 1:51:22  169 53:17  8:35 Vancouver,BC
  192 128/181 M 28/37 M3539  2:44:54   69 Thanh Dang              155 28:42  194 1:20:30 18.5  181 1:49:12  216 55:43  8:58 Vancouver,BC
  193 129/181 M 29/37 M3539  2:45:06   87 Nick Edmonds            151 28:33  119 1:15:15 19.8  132 1:43:48  258 61:18  9:52 Vancouver,BC
  194 130/181 M  4/4  M5559  2:45:08  331 Simon Truelove          246 32:27  195 1:20:36 18.5  215 1:53:02  146 52:06  8:24 Delta,BC
  195 131/181 M 30/37 M3539  2:45:30   88 Kevin Eldridge          139 27:57  184 1:19:55 18.7  168 1:47:51  236 57:40  9:17 Vancouver,BC
  196  65/151 F 10/32 F3034  2:45:52   35 Renee Brickner          258 32:54  136 1:16:06 19.6  179 1:48:59  230 56:53  9:10 Squamish,BC
  197 132/181 M  5/9  M5054  2:45:55   59 Rob Cooper              252 32:35  176 1:19:14 18.8  204 1:51:49  186 54:06  8:43 Vancouver,BC
  198 133/181 M 18/29 M4549  2:46:01  186 Chris Manore             59 24:58  233 1:23:30 17.9  173 1:48:27  235 57:34  9:16 Vancouver,BC
  199  66/151 F 15/30 F3539  2:46:05  125 Hiroko Hayashi          156 28:43  229 1:23:12 17.9  207 1:51:54  188 54:11  8:44 Vancouver,BC
  200 134/181 M 31/37 M3539  2:46:18   51 David Clark             138 27:56   97 1:13:30 20.3  104 1:41:26  278 64:53 10:27 Vancouver,BC
  201 135/181 M 19/29 M4549  2:46:19  289 Peter Sotola             73 25:29  106 1:13:57 20.2   79 1:39:26  295 66:54 10:46 Surrey,BC
  202 136/181 M 20/29 M4549  2:46:29   68 Perry Danforth          225 31:12  220 1:22:20 18.1  222 1:53:32  161 52:58  8:32 Vancouver,BC
  203 137/181 M  6/9  M5054  2:46:34  104 Lawrence Gamracy        232 31:24  134 1:16:05 19.6  165 1:47:29  245 59:06  9:31 Kamloops,BC
  204 138/181 M 24/32 M4044  2:46:37  172 Michael Li              190 29:38  147 1:17:00 19.4  154 1:46:38  248 60:00  9:40 Coquitlam,BC
  205 139/181 M 29/37 M3034  2:47:01  217 Mike Munslow            216 30:43  191 1:20:25 18.5  197 1:51:07  222 55:54  9:00 Vancouver,BC
  206 140/181 M  3/4  M6064  2:47:11  255 Tony Rotheram           223 31:06  208 1:21:22 18.3  210 1:52:28  195 54:44  8:49 Surrey,BC
  207  67/151 F  2/8  F5054  2:47:24  205 Barbara McPhee          219 30:57  250 1:24:44 17.6  240 1:55:41  140 51:44  8:20 Port Coquitlam,B
  208 141/181 M 21/29 M4549  2:47:27   50 Stephen Chung           255 32:43  187 1:20:16 18.6  214 1:52:58  193 54:29  8:47 Vancouver,BC
  209  68/151 F  6/15 F2024  2:47:38   21 Erin Berring            251 32:35  215 1:22:05 18.2  228 1:54:39  162 53:00  8:32 Coquitlam,BC
  210 142/181 M  2/3  M1519  2:47:39  226 Jens Ourom              167 28:55  249 1:24:43 17.6  224 1:53:38  183 54:02  8:42 Garibaldi Hglds,
  211  69/151 F 23/32 F2529  2:47:41  358 Callie Wolff            220 30:59  207 1:21:16 18.4  209 1:52:15  210 55:26  8:56 Vancouver,BC
  212  70/151 F 16/30 F3539  2:48:08   86 Natalia Dyck            276 34:20  144 1:16:47 19.4  196 1:51:06  231 57:02  9:11 Vancouver,BC
  213  71/151 F  7/15 F2024  2:48:47   54 Krysta Cochrane         229 31:20  284 1:29:10 16.7  275 2:00:29   89 48:18  7:47 Richmond,BC
  214 143/181 M 25/32 M4044  2:48:58   84 Steven Drysdale         209 30:26  251 1:24:50 17.6  233 1:55:16  179 53:43  8:39 North Vancouver,
  215  72/151 F  8/15 F2024  2:48:59   17 Robyn Bates             238 31:47  244 1:24:21 17.7  243 1:56:08  158 52:52  8:31 Victoria,BC
  216  73/151 F  6/18 F4044  2:49:11  291 Melanie Spiller         298 36:24  198 1:20:41 18.5  248 1:57:05  145 52:06  8:24 Surrey,BC
  217 144/181 M 22/29 M4549  2:49:14   32 Wayne Bourgeois         284 35:07  210 1:21:40 18.3  247 1:56:46  154 52:28  8:27 Vancouver,BC
  218 145/181 M 23/29 M4549  2:49:16  269 Randy Scobie            240 31:55  234 1:23:35 17.8  238 1:55:29  180 53:48  8:40 Surrey,BC
  219  74/151 F 17/30 F3539  2:49:19  352 Carla Wilkie            275 34:10  186 1:20:10 18.6  227 1:54:19  200 55:00  8:52 Garibaldi Hglds,
  220  75/151 F 18/30 F3539  2:49:41   96 Heather Feeney          131 27:45  269 1:26:57 17.2  229 1:54:42  197 54:59  8:51 Garibaldi Hglds,
  221 146/181 M  7/9  M5054  2:49:42  304 Dan Stiner              221 31:02  226 1:22:52 18.0  225 1:53:54  219 55:49  8:59 Squamish,BC
  222 147/181 M 24/29 M4549  2:49:57  195 David McColm            126 27:28  263 1:26:02 17.3  221 1:53:30  226 56:28  9:06 Whistler,BC
  223  76/151 F 24/32 F2529  2:50:00   22 Erin Bigelow            182 29:27  273 1:27:14 17.1  246 1:56:40  171 53:21  8:36 Vancouver,BC
  224 148/181 M  8/9  M5054  2:50:09  323 George Tiller           123 27:23  216 1:22:05 18.2  185 1:49:28  252 60:42  9:47 Delta,BC
  225  77/151 F 11/32 F3034  2:50:12   85 Liane Dunsmuir          301 36:28  170 1:18:38 19.0  231 1:55:06  204 55:06  8:52 Whistler,BC
  226  78/151 F 19/30 F3539  2:50:46  211 Diane Miller             64 25:13  193 1:20:29 18.5  149 1:45:42  283 65:04 10:29 Vancouver,BC
  227 149/181 M 13/15 M2529  2:50:49    7 Stefan Avall            195 29:50  189 1:20:20 18.6  189 1:50:09  249 60:40  9:46 West Vancouver,B
  228 150/181 M 32/37 M3539  2:50:58  264 Markus Schieck          273 34:01  267 1:26:33 17.2  276 2:00:34  123 50:24  8:07 Garibaldi Hglds,
  229 151/181 M 26/32 M4044  2:51:40  363 John Zarecki            247 32:27  225 1:22:50 18.0  234 1:55:17  225 56:24  9:05 Coquitlam,BC
  230 152/181 M 25/29 M4549  2:51:59   19 David Bebb              264 33:17  160 1:18:01 19.1  199 1:51:18  251 60:41  9:46 Vancouver,BC
  231 153/181 M 26/29 M4549  2:52:01  197 Bill McCullough         285 35:08  190 1:20:21 18.6  237 1:55:28  228 56:34  9:07 Ladner,BC
  232 154/181 M 27/29 M4549  2:52:09   48 Paul Christie           300 36:28  211 1:21:46 18.2  257 1:58:14  182 53:55  8:41 Port Coquitlam,B
  233  79/151 F  7/18 F4044  2:52:37  250 Char Roberts            291 35:38  223 1:22:39 18.0  258 1:58:17  189 54:20  8:45 Langley,BR
  234  80/151 F  3/8  F5054  2:52:41  365 Sharon Skitch           241 31:58  274 1:27:39 17.0  269 1:59:37  165 53:05  8:33 Surrey,BC
  235  81/151 F 20/30 F3539  2:53:21  194 Jane McCarney           149 28:15  289 1:31:00 16.4  265 1:59:15  187 54:07  8:43 Vancouver,BC
  236  82/151 F 12/32 F3034  2:53:29   83 Amanda Dodd             295 35:55  221 1:22:31 18.1  259 1:58:26  203 55:04  8:52 Langley,BC
  237  83/151 F 21/30 F3539  2:53:46  317 Sneeta Takhar           297 36:23  199 1:20:42 18.5  249 1:57:05  229 56:41  9:08 Powell River,BC
  238 155/181 M 30/37 M3034  2:54:16  244 Geoff Rempel            244 32:21  266 1:26:25 17.3  262 1:58:46  212 55:30  8:56 Vancouver,BC
  239 156/181 M 27/32 M4044  2:54:24  292 Kevin Stadnyk           213 30:30  224 1:22:46 18.0  219 1:53:15  257 61:09  9:51 Burnaby,BC
  240 157/181 M 28/32 M4044  2:54:26  259 Kevin Rutherford        227 31:16  306 1:33:13 16.0  293 2:04:28  117 49:58  8:03 Beaverton,OR
  241  84/151 F  4/8  F5054  2:54:29   25 Grace Blok              318 38:52  183 1:19:47 18.7  261 1:58:39  221 55:51  9:00 Whistler,BC
  242 158/181 M 14/15 M2529  2:54:46  169 Adam Leighton           282 35:00  255 1:25:21 17.5  274 2:00:20  192 54:26  8:46 Garibaldi Hglds,
  243  85/151 F  9/15 F2024  2:55:12  355 Stephanie Wilson        250 32:34  248 1:24:37 17.6  250 1:57:10  240 58:02  9:21 Vancouver,BC
  244  86/151 F 10/15 F2024  2:55:25  165 Jessica Langelaan       110 27:07  213 1:21:51 18.2  178 1:48:57  291 66:28 10:42 Vancouver,BC
  245 159/181 M 31/37 M3034  2:55:33  122 Joe Harvard             203 30:08  203 1:20:54 18.4  194 1:51:02  275 64:32 10:24 Abbotsford,BC
  246  87/151 F  8/18 F4044  2:55:36  198 Lindsay McDonald        144 28:10  242 1:24:19 17.7  211 1:52:28  264 63:08 10:10 Vancouver,BC
  247  88/151 F 25/32 F2529  2:55:37  347 Michelle Whiting        280 34:48  161 1:18:06 19.1  213 1:52:54  261 62:44 10:06 Vancouver,BC
  248  89/151 F 26/32 F2529  2:56:20  140 Sarah Holt              224 31:07  241 1:24:18 17.7  235 1:55:25  255 60:55  9:49 Vancouver,BC
  249  90/151 F  1/2  F5559  2:56:22   57 Judy Comer              243 32:17  243 1:24:21 17.7  245 1:56:37  246 59:45  9:37 North Vancouver,
  250  91/151 F 13/32 F3034  2:56:36   63 Leah Costello           305 36:42  271 1:27:06 17.1  286 2:03:48  157 52:49  8:30 North Vancouver,
  251  92/151 F 14/32 F3034  2:56:46  319 Erin Tate               230 31:20  286 1:29:37 16.6  277 2:00:57  220 55:49  8:59 Port Coquitlam,B
  252  93/151 F 15/32 F3034  2:57:09  361 Catherine Yates         314 37:56  275 1:27:48 17.0  299 2:05:44  137 51:26  8:17 Whistler,BC
  253 160/181 M  3/3  M1519  2:57:12  278 Ryan Shea               170 29:00  279 1:28:14 16.9  252 1:57:14  247 59:58  9:39 Brackendale,BC
  254 161/181 M 11/11 M2024  2:57:25  167 John Larsen             281 34:57  282 1:28:52 16.8  288 2:03:49  177 53:36  8:38 Pemberton,BC
  255  94/151 F 27/32 F2529  2:57:51  339 Linda Waithman          157 28:45  222 1:22:33 18.1  198 1:51:17  293 66:34 10:43 Vancouver,BC
  256  95/151 F 16/32 F3034  2:57:51  220 Kimberly Neal           162 28:52  205 1:21:00 18.4  187 1:49:52  299 67:59 10:57 Richmond,BC
  257  96/151 F  5/8  F5054  2:58:28  196 Janet McCormack         236 31:43  280 1:28:18 16.9  271 2:00:01  242 58:28  9:25 North Vancouver,
  258  97/151 F 22/30 F3539  2:58:32  293 Cynthia Stahl           171 29:01  238 1:24:04 17.7  216 1:53:04  288 65:28 10:33 Powell River,BC
  259  98/151 F 28/32 F2529  2:59:09  237 Natasha Purba            42 24:22  293 1:31:19 16.3  241 1:55:41  267 63:28 10:13 Maple Ridge,BC
  260  99/151 F 29/32 F2529  2:59:11  282 Tracy Silvester         254 32:42  257 1:25:31 17.4  256 1:58:12  256 60:59  9:49 Whistler,BC
  261 162/181 M 29/32 M4044  2:59:17  279 Bruce Shipley           287 35:09  230 1:23:20 17.9  260 1:58:29  254 60:49  9:48 Surrey,BC
  262 100/151 F 30/32 F2529  3:00:14  266 Brieschulz Schulz       194 29:47  265 1:26:16 17.3  242 1:56:02  273 64:12 10:20 Garibaldi Hglds,
  263 101/151 F 17/32 F3034  3:00:35  231 Jennifer Perry          231 31:21  287 1:30:28 16.5  279 2:01:49  243 58:47  9:28 Vancouver,BC
  264 163/181 M 32/37 M3034  3:01:05  299 Thomas Sternberg        313 37:32  256 1:25:23 17.5  285 2:02:54  241 58:12  9:22 Delta,BC
  265 164/181 M  4/4  M6064  3:01:25  273 Gord Seeley             239 31:50  247 1:24:34 17.6  244 1:56:23  282 65:03 10:29 Cloverdale,BC
  266 165/181 M 30/32 M4044  3:01:36  192 Gord Mathews            312 37:31  209 1:21:26 18.3  263 1:58:57  260 62:40 10:06 Surrey,BC
  267 102/151 F  9/18 F4044  3:01:42   49 Gail Chung              164 28:54  311 1:34:56 15.7  287 2:03:49  238 57:54  9:19 Vancouver,BC
  268 166/181 M 33/37 M3539  3:03:03  173 Zhenfu Lin              271 33:36  260 1:25:52 17.4  266 1:59:28  271 63:36 10:15 Coquitlam,BC
  269 103/151 F 18/32 F3034  3:03:19   95 Chandra Eyton           235 31:42  236 1:23:46 17.8  236 1:55:28  298 67:51 10:56 Whistler,BC
  270 167/181 M 28/29 M4549  3:03:21  307 Brian Strilesky         262 33:04  261 1:25:56 17.4  264 1:59:00  274 64:22 10:22 Coquitlam,BC
  271 168/181 M 29/29 M4549  3:03:52   20 Jim Beguin              288 35:17  217 1:22:06 18.2  253 1:57:22  292 66:30 10:43 New Westminster,
  272 104/151 F 11/15 F2024  3:04:03  350 Christa Wilcock          74 25:30  278 1:28:04 16.9  223 1:53:34  310 70:30 11:21 Vancouver,BC
  273 105/151 F  8/12 F4549  3:04:35  300 Elizabeth Stevenson     320 39:39  262 1:26:00 17.3  298 2:05:38  244 58:57  9:30 Calgary,AB
  274 169/181 M 33/37 M3034  3:04:35   89 David Elton             260 33:00  277 1:28:00 16.9  278 2:01:00  270 63:36 10:15 Squamish,BC
  275 106/151 F 19/32 F3034  3:05:07   11 Nancy Baggio            283 35:03  268 1:26:48 17.2  280 2:01:51  265 63:16 10:11 Vancouver,BC
  276 107/151 F 20/32 F3034  3:05:30  356 Shelley Wiltse          294 35:53  240 1:24:18 17.7  273 2:00:10  286 65:21 10:31 Abbotsford,BC
  277 170/181 M 34/37 M3539  3:05:34   27 Rob Bloye               278 34:26  259 1:25:44 17.4  272 2:00:10  287 65:24 10:32 North Vancouver,
  278 108/151 F 23/30 F3539  3:05:54  229 Helen Pearson           257 32:50  301 1:32:19 16.2  297 2:05:09  253 60:46  9:47 Pemberton,BC
  279 109/151 F 10/18 F4044  3:05:55  120 Ingrid Harrison         299 36:25  307 1:33:43 15.9  307 2:10:08  218 55:48  8:59 Surrey,BC
  280 171/181 M 34/37 M3034  3:06:14  268 Malcolm Schulz          217 30:45  294 1:31:20 16.3  282 2:02:04  272 64:11 10:20 Garibaldi Hglds,
  281 110/151 F 21/32 F3034  3:06:17  275 Stephanie Sersli        263 33:09  285 1:29:36 16.6  284 2:02:45  268 63:33 10:14 Vancouver,BC
  282 111/151 F  9/12 F4549  3:06:43  359 Michaela Wooldridge     210 30:29  253 1:25:03 17.5  239 1:55:31  312 71:12 11:28 Delta,BC
  283 112/151 F 22/32 F3034  3:06:47  306 Megan Stoilen           311 37:31  245 1:24:25 17.7  281 2:01:56  277 64:52 10:27 Vancouver,BC
  284 113/151 F 23/32 F3034  3:06:53   55 Karina Collie            34 24:01  291 1:31:07 16.4  232 1:55:08  314 71:46 11:33 Whistler,BC
  285 114/151 F 24/32 F3034  3:07:43  253 Shauna Root             206 30:15  276 1:27:54 17.0  255 1:58:09  306 69:34 11:12 North Vancouver,
  286 115/151 F 10/12 F4549  3:08:53  206 Kay McQueen             324 41:26  300 1:32:14 16.2  313 2:13:40  206 55:13  8:54 Vancouver,BC
  287 116/151 F 11/12 F4549  3:09:06   73 Pam De Zeeuw            222 31:05  305 1:32:50 16.1  290 2:03:54  285 65:12 10:30 Burnaby,BC
  288 117/151 F 24/30 F3539  3:09:23  214 Leah Montgomery         205 30:11  227 1:22:59 18.0  217 1:53:09  324 76:15 12:17 Port Coquitlam,B
  289 118/151 F 25/30 F3539  3:09:58  243 Janet Ready             277 34:24  302 1:32:37 16.1  301 2:07:01  263 62:58 10:08 Vancouver,BC
  290 172/181 M 35/37 M3539  3:10:19  163 Stephen Kukucha         266 33:27  235 1:23:46 17.8  251 1:57:12  317 73:07 11:46 Vancouver,BC
  291 119/151 F 11/18 F4044  3:10:20  139 Carin Holroyd            55 24:53  322 1:39:18 15.0  291 2:04:11  289 66:10 10:39 Garibaldi Hglds,
  292 120/151 F 25/32 F3034  3:11:56  286 Kelly Smith             249 32:32  270 1:26:58 17.2  267 1:59:30  315 72:26 11:40 North Vancouver,
  293 121/151 F 12/15 F2024  3:12:04  121 Nicole Harrison          40 24:21  319 1:37:45 15.3  283 2:02:05  308 69:59 11:16 Burnaby,BC
  294 122/151 F 26/30 F3539  3:12:52  114 Jane Hague              270 33:34  264 1:26:03 17.3  268 1:59:36  318 73:16 11:48 Whistler,BC
  295 123/151 F 26/32 F3034  3:12:54   76 Danielle Delves         108 27:02  316 1:36:52 15.4  289 2:03:53  301 69:02 11:07 Vancouver,BC
  296 124/151 F 13/15 F2024  3:13:43   72 Jennifer Davy           310 37:28  296 1:31:23 16.3  304 2:08:51  279 64:53 10:27 Brandon,MB
  297 125/151 F  6/8  F5054  3:14:11  171 Gayle Lewis             306 36:44  310 1:34:40 15.8  309 2:11:23  262 62:48 10:07 Squamish,BC
  298 126/151 F 27/30 F3539  3:14:25  174 Karen Lirenman          228 31:19  281 1:28:38 16.8  270 1:59:57  320 74:29 12:00 Vancouver,BC
  299 173/181 M 35/37 M3034  3:14:27   71 Craig Davidiuk          321 39:55  290 1:31:06 16.4  308 2:11:00  266 63:27 10:13 Squamish,BC
  300 127/151 F 27/32 F3034  3:14:39  316 Vayla Tagney            303 36:36  314 1:36:37 15.4  312 2:13:13  259 61:27  9:54 New Westminster,
  301 128/151 F 28/32 F3034  3:14:46  274 Mikel Segal             309 37:26  326 1:42:19 14.6  324 2:19:44  201 55:02  8:52 Vancouver,BC
  302 174/181 M 36/37 M3034  3:14:59  170 Jeff Levin              272 33:48  292 1:31:08 16.4  296 2:04:55  309 70:04 11:17 Port Moody,BC
  303 129/151 F  7/8  F5054  3:16:35   66 Gllian Cullen           202 30:07  320 1:38:13 15.2  303 2:08:19  300 68:16 11:00 West Vancouver,B
  304 130/151 F 29/32 F3034  3:16:48  180 Cindy Lund Chow         293 35:51  297 1:31:49 16.2  302 2:07:40  302 69:08 11:08 North Vancouver,
  305 131/151 F 31/32 F2529  3:17:27   65 Danielle Cullen         261 33:00  295 1:31:22 16.3  292 2:04:22  316 73:06 11:46 Burnaby,BC
  306 175/181 M 37/37 M3034  3:19:02  362 Tavis Yeung             332 61:46  200 1:20:43 18.5  326 2:22:29  227 56:33  9:07 Vancouver,BC
  307 176/181 M 31/32 M4044  3:19:19  118 Terry Harker            327 42:43  298 1:31:55 16.2  315 2:14:38  276 64:42 10:25 Cabo San Lucas,B
  308 132/151 F 28/30 F3539  3:20:37   61 Tiffany Cooper          322 40:30  312 1:35:12 15.7  317 2:15:41  280 64:56 10:27 Delta,BC
  309 133/151 F 12/18 F4044  3:20:53  105 Shelley Geislinger      267 33:32  304 1:32:45 16.1  300 2:06:16  321 74:37 12:01 Vancouver,BC
  310 134/151 F 32/32 F2529  3:21:02   90 Vanessa Elton           290 35:35  283 1:29:01 16.8  294 2:04:36  325 76:26 12:18 Maple Ridge,BC
  311 135/151 F  1/1  F6064  3:21:04   18 Mary Battell            296 36:19  324 1:41:10 14.7  321 2:17:29  269 63:36 10:14 Delta,BC
  312 177/181 M 32/32 M4044  3:23:01  183 Richard MacKeller       331 54:25  232 1:23:26 17.9  322 2:17:50  284 65:12 10:30 Garibaldi Hglds,
  313 136/151 F 13/18 F4044  3:23:50  288 Dana Sorensen           328 43:24  303 1:32:39 16.1  318 2:16:03  297 67:47 10:55 North Vancouver,
  314 137/151 F  8/8  F5054  3:24:02   43 Marilyne Chapman        315 38:33  313 1:35:56 15.5  314 2:14:29  305 69:34 11:12 Garibaldi Hglds,
  315 138/151 F 14/18 F4044  3:24:48  308 Christine Stufano       304 36:40  323 1:40:48 14.8  320 2:17:28  296 67:21 10:51 Whistler,BC
  316 139/151 F 15/18 F4044  3:25:55   12 Janis Bailey            317 38:52  318 1:37:14 15.3  319 2:16:05  307 69:51 11:15 New Westminster,
  317 178/181 M 36/37 M3539  3:26:13  213 Gary Mitchell           286 35:09  308 1:33:58 15.9  305 2:09:06  326 77:08 12:25 Delta,BC
  318 140/151 F 29/30 F3539  3:26:52  366 Lisa Webster            289 35:31  317 1:37:05 15.4  310 2:12:35  319 74:17 11:58 Vancouver,BC
  319 179/181 M 37/37 M3539  3:27:48  203 Scott McLarty           253 32:37  299 1:32:11 16.2  295 2:04:48  327 83:00 13:22 Calgary,AB
  320 141/151 F 16/18 F4044  3:28:25    2 Jill Aikens             274 34:05  321 1:38:47 15.1  311 2:12:51  323 75:34 12:10 Garibaldi Hglds,
  321 142/151 F  2/2  F5559  3:30:14  281 Heather Sidsworth       292 35:43  327 1:42:50 14.5  323 2:18:33  313 71:42 11:33 Squamish,BC
  322 143/151 F 30/32 F3034  3:30:29  150 Vanessa Isnardy         323 40:59  309 1:33:58 15.9  316 2:14:57  322 75:33 12:10 Garibaldi Hglds,
  323 180/181 M  9/9  M5054  3:32:51  246 Garth Riess             316 38:50  288 1:30:56 16.4  306 2:09:46  328 83:06 13:23 Pemberton,BC
  324 144/151 F 17/18 F4044  3:33:06  218 Barbara Murphy          329 46:46  315 1:36:51 15.4  327 2:23:36  304 69:31 11:12 North Vancouver,
  325 145/151 F 12/12 F4549  3:33:06   79 Monique Desrosiers      325 42:07  325 1:41:46 14.7  328 2:23:53  303 69:14 11:09 North Vancouver,
  326 146/151 F 14/15 F2024  3:33:21   46 Helen Cheung            302 36:30  328 1:45:47 14.1  325 2:22:17  311 71:05 11:27 North Vancouver,
  327 147/151 F 15/15 F2024  3:37:28  351 Janice Wilkes           326 42:10  329 1:49:02 13.7  329 2:31:12  290 66:16 10:40 Pemberton,BC
  328 148/151 F 18/18 F4044  3:46:29  225 July Ono                330 46:53  330 1:52:52 13.2  330 2:39:44  294 66:45 10:45 Delta,BC
  329 149/151 F 31/32 F3034           223 Karen Ogilvie            25 23:24  155 1:17:33 19.2   94 1:40:57                  Squamish,BC
  330 150/151 F 30/30 F3539           261 Dawn Sadler              46 24:35  228 1:23:02 18.0  166 1:47:36                  Vancouver,BC
  331 181/181 M 15/15 M2529           158 Lauren Kildaw            19 22:01                                                 Victoria,BC
  332 151/151 F 32/32 F3034           116 Sara Hamilton           173 29:05                                                 Garibaldi Hglds,